createdAt,value
2018-06-15T00:00:59.754Z,16.06
2018-06-15T00:03:28.627Z,16.00
2018-06-15T00:05:57.487Z,16.01
2018-06-15T00:08:26.385Z,16.12
2018-06-15T00:10:55.192Z,16.07
2018-06-15T00:13:24.038Z,16.09
2018-06-15T00:15:52.943Z,16.05
2018-06-15T00:18:21.833Z,16.04
2018-06-15T00:20:50.674Z,16.13
2018-06-15T00:23:19.533Z,16.12
2018-06-15T00:25:48.386Z,16.02
2018-06-15T00:28:18.301Z,15.98
2018-06-15T00:30:47.196Z,15.93
2018-06-15T00:33:16.079Z,15.86
2018-06-15T00:35:44.957Z,15.77
2018-06-15T00:38:14.118Z,15.77
2018-06-15T00:40:42.957Z,15.67
2018-06-15T00:43:12.053Z,15.68
2018-06-15T00:45:40.899Z,15.68
2018-06-15T00:48:10.909Z,15.71
2018-06-15T00:50:39.847Z,15.76
2018-06-15T00:53:08.710Z,15.86
2018-06-15T00:55:37.619Z,15.81
2018-06-15T00:58:06.526Z,15.76
2018-06-15T01:00:35.429Z,15.77
2018-06-15T01:03:04.354Z,15.77
2018-06-15T01:05:33.302Z,15.85
2018-06-15T01:08:02.283Z,15.97
2018-06-15T01:10:31.176Z,15.98
2018-06-15T01:13:00.015Z,15.86
2018-06-15T01:15:28.950Z,15.67
2018-06-15T01:17:57.877Z,15.68
2018-06-15T01:20:26.856Z,15.58
2018-06-15T01:22:55.893Z,15.45
2018-06-15T01:25:24.803Z,15.59
2018-06-15T01:27:53.708Z,15.56
2018-06-15T01:30:22.570Z,15.56
2018-06-15T01:32:51.421Z,15.55
2018-06-15T01:35:20.294Z,15.57
2018-06-15T01:37:49.142Z,15.56
2018-06-15T01:40:18.004Z,15.57
2018-06-15T01:42:46.925Z,15.52
2018-06-15T01:45:15.825Z,15.55
2018-06-15T01:47:44.714Z,15.54
2018-06-15T01:50:13.618Z,15.56
2018-06-15T01:52:42.577Z,15.52
2018-06-15T01:55:11.477Z,15.69
2018-06-15T01:57:40.400Z,15.68
2018-06-15T02:00:09.394Z,15.65
2018-06-15T02:02:38.241Z,15.56
2018-06-15T02:05:07.112Z,15.56
2018-06-15T02:07:36.035Z,15.55
2018-06-15T02:10:05.189Z,15.43
2018-06-15T02:12:34.074Z,15.34
2018-06-15T02:15:02.990Z,15.26
2018-06-15T02:17:35.128Z,15.11
2018-06-15T02:20:04.473Z,14.91
2018-06-15T02:22:33.418Z,14.93
2018-06-15T02:25:02.319Z,14.92
2018-06-15T02:27:31.229Z,14.91
2018-06-15T02:30:00.134Z,14.83
2018-06-15T02:32:29.056Z,14.79
2018-06-15T02:34:57.952Z,14.78
2018-06-15T02:37:26.831Z,14.76
2018-06-15T02:39:55.802Z,14.71
2018-06-15T02:42:24.731Z,14.66
2018-06-15T02:44:53.645Z,14.64
2018-06-15T02:47:22.549Z,14.64
2018-06-15T02:49:51.457Z,14.52
2018-06-15T02:52:20.379Z,14.41
2018-06-15T02:54:49.265Z,14.48
2018-06-15T02:57:18.153Z,14.47
2018-06-15T02:59:47.069Z,14.43
2018-06-15T03:02:15.985Z,14.41
2018-06-15T03:04:44.860Z,14.44
2018-06-15T03:07:13.755Z,14.48
2018-06-15T03:09:42.693Z,14.50
2018-06-15T03:12:11.584Z,14.54
2018-06-15T03:14:40.509Z,14.58
2018-06-15T03:17:09.408Z,14.56
2018-06-15T03:19:38.689Z,14.59
2018-06-15T03:22:07.668Z,14.65
2018-06-15T03:24:37.980Z,14.67
2018-06-15T03:27:10.719Z,14.72
2018-06-15T03:29:39.627Z,14.72
2018-06-15T03:32:08.589Z,14.69
2018-06-15T03:34:37.511Z,14.68
2018-06-15T03:37:06.482Z,14.65
2018-06-15T03:39:35.376Z,14.65
2018-06-15T03:42:04.261Z,14.62
2018-06-15T03:44:33.283Z,14.58
2018-06-15T03:47:02.170Z,14.56
2018-06-15T03:49:31.012Z,14.57
2018-06-15T03:51:59.920Z,14.59
2018-06-15T03:54:28.854Z,14.57
2018-06-15T03:56:57.728Z,14.52
2018-06-15T03:59:26.579Z,14.60
2018-06-15T04:01:55.492Z,14.59
2018-06-15T04:04:24.936Z,14.65
2018-06-15T04:06:53.865Z,14.68
2018-06-15T04:09:22.817Z,14.72
2018-06-15T04:11:51.714Z,14.70
2018-06-15T04:14:20.596Z,14.76
2018-06-15T04:16:49.484Z,14.67
2018-06-15T04:19:18.323Z,14.92
2018-06-15T04:21:47.214Z,14.95
2018-06-15T04:24:17.292Z,14.93
2018-06-15T04:26:46.210Z,14.81
2018-06-15T04:29:15.042Z,15.19
2018-06-15T04:31:43.946Z,15.26
2018-06-15T04:34:13.210Z,15.40
2018-06-15T04:36:42.140Z,15.67
2018-06-15T04:39:11.693Z,15.76
2018-06-15T04:41:40.595Z,16.16
2018-06-15T04:44:09.472Z,16.59
2018-06-15T04:46:38.392Z,17.04
2018-06-15T04:49:07.281Z,17.17
2018-06-15T04:51:36.205Z,16.98
2018-06-15T04:54:05.143Z,16.93
2018-06-15T04:56:34.028Z,16.78
2018-06-15T04:59:02.943Z,17.26
2018-06-15T05:01:31.853Z,17.42
2018-06-15T05:04:00.779Z,18.23
2018-06-15T05:06:29.709Z,18.43
2018-06-15T05:08:59.110Z,19.69
2018-06-15T05:11:28.075Z,20.65
2018-06-15T05:14:04.473Z,21.64
2018-06-15T05:16:33.646Z,21.87
2018-06-15T05:19:02.520Z,22.37
2018-06-15T05:21:31.452Z,22.95
2018-06-15T05:24:00.322Z,23.24
2018-06-15T05:26:29.186Z,23.38
2018-06-15T05:28:59.100Z,24.28
2018-06-15T05:31:28.055Z,23.73
2018-06-15T05:33:56.944Z,24.38
2018-06-15T05:36:25.841Z,25.83
2018-06-15T05:38:54.784Z,25.90
2018-06-15T05:41:23.704Z,24.98
2018-06-15T05:43:52.625Z,25.74
2018-06-15T05:46:28.741Z,25.88
2018-06-15T05:48:57.644Z,25.59
2018-06-15T05:51:26.549Z,26.55
2018-06-15T05:53:55.416Z,25.76
2018-06-15T05:56:24.301Z,25.56
2018-06-15T05:58:53.186Z,24.91
2018-06-15T06:01:22.108Z,23.75
2018-06-15T06:03:52.624Z,23.04
2018-06-15T06:06:21.943Z,22.65
2018-06-15T06:08:50.839Z,23.46
2018-06-15T06:11:19.799Z,22.65
2018-06-15T06:13:48.753Z,21.80
2018-06-15T06:16:17.685Z,21.17
2018-06-15T06:18:46.573Z,23.52
2018-06-15T06:21:15.502Z,24.31
2018-06-15T06:23:44.414Z,23.68
2018-06-15T06:26:14.082Z,24.69
2018-06-15T06:28:43.013Z,25.70
2018-06-15T06:31:11.848Z,27.57
2018-06-15T06:33:40.667Z,28.77
2018-06-15T06:36:09.540Z,26.03
2018-06-15T06:38:38.388Z,25.95
2018-06-15T06:41:07.304Z,25.55
2018-06-15T06:43:36.190Z,27.27
2018-06-15T06:46:05.094Z,26.66
2018-06-15T06:48:33.956Z,28.55
2018-06-15T06:51:02.914Z,27.81
2018-06-15T06:53:31.909Z,27.56
2018-06-15T06:56:00.768Z,27.82
2018-06-15T06:58:29.606Z,27.94
2018-06-15T07:00:58.532Z,27.99
2018-06-15T07:03:27.379Z,26.99
2018-06-15T07:05:56.234Z,25.30
2018-06-15T07:08:25.140Z,27.43
2018-06-15T07:10:54.013Z,27.41
2018-06-15T07:13:22.929Z,25.57
2018-06-15T07:15:51.801Z,27.56
2018-06-15T07:18:20.690Z,28.08
2018-06-15T07:20:49.593Z,27.26
2018-06-15T07:23:18.415Z,28.73
2018-06-15T07:25:47.243Z,26.97
2018-06-15T07:28:16.089Z,27.53
2018-06-15T07:30:44.925Z,27.96
2018-06-15T07:33:13.790Z,29.00
2018-06-15T07:35:42.625Z,29.03
2018-06-15T07:38:11.506Z,28.79
2018-06-15T07:40:40.366Z,29.43
2018-06-15T07:43:09.223Z,30.34
2018-06-15T07:45:38.034Z,29.64
2018-06-15T07:48:22.159Z,29.14
2018-06-15T07:50:51.016Z,28.97
2018-06-15T07:53:19.833Z,28.23
2018-06-15T07:55:48.678Z,27.53
2018-06-15T07:58:17.535Z,28.50
2018-06-15T08:00:46.437Z,28.76
2018-06-15T08:03:15.302Z,28.28
2018-06-15T08:05:44.162Z,27.80
2018-06-15T08:08:13.453Z,27.58
2018-06-15T08:10:42.340Z,26.81
2018-06-15T08:13:11.264Z,24.50
2018-06-15T08:15:40.138Z,23.64
2018-06-15T08:18:08.968Z,24.89
2018-06-15T08:20:37.847Z,26.32
2018-06-15T08:23:06.709Z,26.36
2018-06-15T08:25:35.564Z,27.07
2018-06-15T08:28:04.449Z,25.57
2018-06-15T08:30:33.314Z,26.42
2018-06-15T08:33:02.249Z,27.11
2018-06-15T08:35:31.170Z,28.15
2018-06-15T08:38:00.032Z,27.21
2018-06-15T08:40:28.909Z,26.65
2018-06-15T08:42:57.786Z,25.96
2018-06-15T08:45:26.687Z,26.08
2018-06-15T08:47:55.521Z,25.79
2018-06-15T08:50:24.388Z,24.50
2018-06-15T08:52:53.300Z,25.66
2018-06-15T08:55:22.192Z,26.34
2018-06-15T08:57:51.058Z,27.57
2018-06-15T09:00:19.999Z,26.97
2018-06-15T09:02:48.864Z,26.29
2018-06-15T09:05:17.760Z,27.11
2018-06-15T09:07:46.653Z,27.79
2018-06-15T09:10:15.556Z,26.33
2018-06-15T09:12:44.436Z,23.90
2018-06-15T09:15:13.353Z,22.40
2018-06-15T09:17:42.263Z,22.12
2018-06-15T09:20:11.165Z,21.90
2018-06-15T09:22:40.040Z,21.33
2018-06-15T09:25:08.937Z,20.61
2018-06-15T09:27:38.641Z,20.68
2018-06-15T09:30:07.564Z,21.52
2018-06-15T09:32:36.491Z,21.82
2018-06-15T09:35:05.479Z,22.66
2018-06-15T09:37:34.350Z,23.72
2018-06-15T09:40:03.271Z,23.54
2018-06-15T09:42:32.664Z,23.79
2018-06-15T09:45:01.599Z,24.04
2018-06-15T09:47:30.512Z,23.29
2018-06-15T09:49:59.369Z,23.01
2018-06-15T09:52:28.213Z,23.44
2018-06-15T09:54:57.130Z,23.49
2018-06-15T09:57:26.002Z,23.97
2018-06-15T09:59:54.896Z,23.71
2018-06-15T10:02:23.707Z,21.92
2018-06-15T10:04:52.569Z,21.32
2018-06-15T10:07:21.454Z,21.68
2018-06-15T10:09:50.309Z,22.49
2018-06-15T10:12:19.187Z,22.81
2018-06-15T10:14:48.073Z,22.99
2018-06-15T10:17:16.932Z,22.71
2018-06-15T10:19:45.839Z,23.62
2018-06-15T10:22:14.783Z,23.56
2018-06-15T10:24:43.662Z,23.24
2018-06-15T10:27:12.566Z,22.87
2018-06-15T10:29:41.619Z,22.46
2018-06-15T10:32:10.524Z,22.52
2018-06-15T10:34:39.437Z,22.35
2018-06-15T10:37:08.273Z,21.86
2018-06-15T10:39:37.163Z,21.49
2018-06-15T10:42:06.084Z,21.48
2018-06-15T10:44:34.993Z,20.86
2018-06-15T10:47:04.194Z,20.74
2018-06-15T10:49:33.093Z,20.65
2018-06-15T10:52:02.118Z,20.63
2018-06-15T10:54:31.022Z,20.75
2018-06-15T10:56:59.961Z,21.41
2018-06-15T10:59:28.855Z,22.32
2018-06-15T11:01:58.337Z,22.68
2018-06-15T11:04:27.209Z,22.70
2018-06-15T11:06:56.137Z,22.65
2018-06-15T11:09:25.048Z,23.29
2018-06-15T11:11:53.952Z,23.35
2018-06-15T11:14:22.853Z,22.95
2018-06-15T11:16:51.779Z,22.87
2018-06-15T11:19:20.624Z,23.06
2018-06-15T11:21:49.531Z,23.49
2018-06-15T11:24:18.461Z,23.49
2018-06-15T11:26:47.369Z,22.89
2018-06-15T11:29:16.301Z,22.33
2018-06-15T11:31:45.237Z,21.98
2018-06-15T11:34:14.169Z,21.96
2018-06-15T11:36:43.052Z,22.01
2018-06-15T11:39:11.974Z,21.71
2018-06-15T11:41:40.832Z,21.49
2018-06-15T11:44:09.739Z,21.97
2018-06-15T11:46:38.743Z,22.88
2018-06-15T11:49:07.669Z,22.42
2018-06-15T11:51:36.772Z,22.60
2018-06-15T11:54:05.706Z,22.61
2018-06-15T11:56:34.621Z,22.80
2018-06-15T11:59:03.531Z,22.99
2018-06-15T12:01:32.429Z,23.52
2018-06-15T12:04:01.297Z,23.08
2018-06-15T12:06:30.162Z,23.62
2018-06-15T12:08:59.026Z,24.03
2018-06-15T12:11:27.892Z,24.14
2018-06-15T12:14:02.912Z,24.17
2018-06-15T12:16:38.096Z,24.18
2018-06-15T12:19:17.047Z,23.70
2018-06-15T12:21:55.995Z,23.73
2018-06-15T12:24:32.366Z,23.38
2018-06-15T12:27:03.963Z,23.62
2018-06-15T12:29:39.495Z,23.97
2018-06-15T12:32:10.772Z,24.06
2018-06-15T12:34:41.995Z,23.81
2018-06-15T12:37:10.950Z,24.35
2018-06-15T12:39:39.921Z,23.81
2018-06-15T12:42:08.810Z,24.33
2018-06-15T12:44:37.710Z,24.71
2018-06-15T12:47:06.655Z,24.01
2018-06-15T12:49:35.642Z,23.48
2018-06-15T12:52:04.594Z,23.51
2018-06-15T12:54:33.475Z,23.27
2018-06-15T12:57:02.419Z,23.24
2018-06-15T12:59:31.358Z,23.50
2018-06-15T13:02:00.231Z,23.29
2018-06-15T13:04:29.108Z,23.48
2018-06-15T13:06:57.970Z,23.48
2018-06-15T13:09:26.965Z,23.47
2018-06-15T13:11:57.556Z,23.26
2018-06-15T13:14:30.979Z,23.68
2018-06-15T13:16:59.821Z,24.20
2018-06-15T13:19:28.749Z,23.85
2018-06-15T13:21:57.669Z,23.45
2018-06-15T13:24:26.591Z,23.39
2018-06-15T13:26:55.977Z,23.67
2018-06-15T13:29:24.908Z,23.74
2018-06-15T13:31:53.775Z,23.94
2018-06-15T13:34:22.620Z,24.32
2018-06-15T13:36:51.454Z,24.48
2018-06-15T13:39:20.309Z,24.25
2018-06-15T13:41:49.170Z,24.40
2018-06-15T13:44:18.092Z,24.63
2018-06-15T13:46:46.992Z,24.92
2018-06-15T13:49:16.027Z,24.47
2018-06-15T13:51:44.968Z,24.74
2018-06-15T13:54:13.860Z,25.10
2018-06-15T13:56:42.790Z,25.01
2018-06-15T13:59:11.685Z,25.21
2018-06-15T14:01:40.579Z,24.88
2018-06-15T14:04:09.556Z,24.36
2018-06-15T14:06:38.430Z,23.94
2018-06-15T14:09:08.882Z,24.25
2018-06-15T14:11:37.794Z,23.98
2018-06-15T14:14:07.595Z,23.76
2018-06-15T14:16:36.511Z,23.90
2018-06-15T14:19:05.396Z,23.33
2018-06-15T14:21:35.752Z,23.21
2018-06-15T14:24:04.746Z,23.59
2018-06-15T14:26:35.850Z,23.26
2018-06-15T14:29:05.219Z,23.74
2018-06-15T14:31:35.393Z,23.77
2018-06-15T14:34:04.442Z,23.48
2018-06-15T14:36:34.764Z,23.54
2018-06-15T14:39:08.207Z,23.70
2018-06-15T14:41:37.069Z,23.95
2018-06-15T14:44:06.035Z,23.62
2018-06-15T14:46:56.646Z,23.60
2018-06-15T14:49:25.504Z,23.32
2018-06-15T14:51:54.618Z,23.42
2018-06-15T14:54:23.574Z,23.09
2018-06-15T14:56:52.640Z,23.05
2018-06-15T14:59:21.595Z,23.13
2018-06-15T15:01:57.246Z,23.01
2018-06-15T15:04:26.216Z,22.92
2018-06-15T15:06:55.464Z,22.83
2018-06-15T15:09:26.576Z,22.95
2018-06-15T15:11:56.926Z,22.77
2018-06-15T15:14:27.141Z,22.43
2018-06-15T15:16:55.982Z,22.66
2018-06-15T15:19:24.886Z,22.47
2018-06-15T15:21:53.794Z,22.34
2018-06-15T15:24:23.967Z,22.30
2018-06-15T15:26:56.203Z,22.38
2018-06-15T15:29:26.046Z,22.05
2018-06-15T15:31:55.138Z,21.89
2018-06-15T15:34:24.005Z,21.98
2018-06-15T15:36:52.900Z,22.16
2018-06-15T15:39:23.146Z,22.13
2018-06-15T15:41:52.048Z,22.07
2018-06-15T15:44:27.765Z,22.02
2018-06-15T15:46:57.126Z,21.95
2018-06-15T15:49:26.069Z,21.98
2018-06-15T15:51:55.096Z,21.81
2018-06-15T15:54:24.011Z,22.05
2018-06-15T15:56:52.902Z,22.03
2018-06-15T15:59:21.892Z,22.11
2018-06-15T16:01:50.803Z,22.20
2018-06-15T16:04:19.677Z,22.22
2018-06-15T16:06:48.504Z,22.17
2018-06-15T16:09:17.463Z,22.22
2018-06-15T16:11:46.357Z,22.35
2018-06-15T16:14:15.352Z,22.19
2018-06-15T16:16:44.292Z,22.04
2018-06-15T16:19:13.125Z,22.11
2018-06-15T16:21:41.989Z,22.08
2018-06-15T16:24:10.941Z,22.23
2018-06-15T16:26:39.899Z,22.08
2018-06-15T16:29:18.213Z,21.99
2018-06-15T16:31:47.180Z,21.95
2018-06-15T16:34:16.171Z,21.94
2018-06-15T16:36:45.137Z,21.94
2018-06-15T16:39:14.002Z,21.83
2018-06-15T16:41:42.921Z,21.84
2018-06-15T16:44:11.867Z,21.79
2018-06-15T16:46:40.794Z,21.74
2018-06-15T16:49:09.753Z,21.62
2018-06-15T16:51:38.687Z,21.61
2018-06-15T16:54:07.531Z,21.43
2018-06-15T16:56:37.408Z,21.48
2018-06-15T16:59:06.466Z,21.49
2018-06-15T17:01:35.700Z,21.41
2018-06-15T17:04:04.570Z,21.40
2018-06-15T17:06:33.418Z,21.38
2018-06-15T17:09:02.457Z,21.29
2018-06-15T17:11:31.274Z,21.34
2018-06-15T17:14:00.229Z,21.29
2018-06-15T17:16:36.231Z,21.13
2018-06-15T17:19:05.176Z,21.21
2018-06-15T17:22:02.821Z,21.30
2018-06-15T17:24:55.435Z,21.15
2018-06-15T17:27:46.931Z,21.06
2018-06-15T17:30:43.358Z,21.10
2018-06-15T17:33:12.724Z,21.06
2018-06-15T17:35:42.444Z,20.96
2018-06-15T17:38:12.087Z,20.90
2018-06-15T17:40:40.940Z,20.90
2018-06-15T17:43:09.753Z,20.87
2018-06-15T17:45:39.509Z,20.79
2018-06-15T17:48:08.464Z,20.72
2018-06-15T17:50:37.356Z,20.63
2018-06-15T17:53:06.382Z,20.56
2018-06-15T17:55:35.230Z,20.46
2018-06-15T17:58:04.159Z,20.51
2018-06-15T18:00:33.016Z,20.51
2018-06-15T18:03:01.902Z,20.47
2018-06-15T18:05:30.758Z,20.45
2018-06-15T18:07:59.743Z,20.42
2018-06-15T18:10:29.855Z,20.34
2018-06-15T18:12:58.951Z,20.30
2018-06-15T18:15:31.348Z,20.34
2018-06-15T18:18:00.614Z,20.29
2018-06-15T18:20:29.872Z,20.30
2018-06-15T18:22:59.271Z,20.22
2018-06-15T18:25:28.660Z,20.13
2018-06-15T18:27:58.694Z,20.07
2018-06-15T18:30:28.090Z,19.98
2018-06-15T18:32:58.371Z,19.78
2018-06-15T18:35:27.593Z,19.63
2018-06-15T18:37:56.735Z,19.56
2018-06-15T18:40:26.315Z,19.51
2018-06-15T18:42:57.070Z,19.47
2018-06-15T18:45:26.649Z,19.45
2018-06-15T18:47:55.521Z,19.32
2018-06-15T18:50:24.380Z,19.25
2018-06-15T18:52:53.378Z,19.14
2018-06-15T18:55:26.265Z,19.04
2018-06-15T18:57:55.301Z,18.93
2018-06-15T19:00:24.575Z,18.87
2018-06-15T19:02:53.649Z,18.82
2018-06-15T19:05:22.784Z,18.75
2018-06-15T19:07:51.674Z,18.67
2018-06-15T19:10:20.735Z,18.58
2018-06-15T19:12:49.841Z,18.51
2018-06-15T19:15:18.959Z,18.41
2018-06-15T19:17:47.965Z,18.35
2018-06-15T19:20:17.099Z,18.38
2018-06-15T19:22:45.986Z,18.29
2018-06-15T19:25:14.909Z,18.25
2018-06-15T19:27:43.854Z,18.21
2018-06-15T19:30:12.729Z,18.16
2018-06-15T19:32:41.623Z,18.11
2018-06-15T19:35:10.470Z,18.01
2018-06-15T19:37:39.360Z,17.92
2018-06-15T19:40:08.318Z,17.86
2018-06-15T19:42:37.256Z,17.79
2018-06-15T19:45:06.253Z,17.70
2018-06-15T19:47:35.197Z,17.64
2018-06-15T19:50:04.169Z,17.54
2018-06-15T19:52:33.004Z,17.48
2018-06-15T19:55:01.848Z,17.41
2018-06-15T19:57:30.708Z,17.38
2018-06-15T19:59:59.674Z,17.37
2018-06-15T20:02:28.585Z,17.32
2018-06-15T20:04:57.573Z,17.23
2018-06-15T20:07:26.592Z,17.15
2018-06-15T20:09:55.553Z,17.15
2018-06-15T20:12:24.444Z,16.96
2018-06-15T20:14:53.356Z,16.86
2018-06-15T20:17:22.230Z,16.76
2018-06-15T20:19:51.045Z,16.67
2018-06-15T20:22:19.901Z,16.77
2018-06-15T20:24:48.763Z,16.65
2018-06-15T20:27:17.808Z,16.57
2018-06-15T20:29:46.709Z,16.53
2018-06-15T20:32:15.602Z,16.44
2018-06-15T20:34:44.507Z,16.33
2018-06-15T20:37:13.461Z,16.27
2018-06-15T20:39:42.414Z,16.24
2018-06-15T20:42:11.304Z,16.13
2018-06-15T20:44:40.258Z,16.11
2018-06-15T20:47:09.157Z,16.06
2018-06-15T20:49:38.060Z,16.01
2018-06-15T20:52:07.187Z,15.94
2018-06-15T20:54:36.242Z,15.89
2018-06-15T20:57:05.382Z,15.84
2018-06-15T20:59:34.259Z,15.79
2018-06-15T21:02:03.164Z,15.72
2018-06-15T21:04:32.086Z,15.64
2018-06-15T21:07:00.882Z,15.63
2018-06-15T21:09:29.731Z,15.65
2018-06-15T21:11:58.669Z,15.65
2018-06-15T21:14:27.520Z,15.61
2018-06-15T21:16:56.490Z,15.61
2018-06-15T21:19:25.336Z,15.59
2018-06-15T21:21:54.284Z,15.54
2018-06-15T21:24:23.114Z,15.50
2018-06-15T21:26:51.969Z,15.49
2018-06-15T21:29:20.851Z,15.49
2018-06-15T21:31:49.825Z,15.43
2018-06-15T21:34:18.675Z,15.30
2018-06-15T21:36:47.571Z,15.25
2018-06-15T21:39:16.562Z,15.20
2018-06-15T21:41:45.505Z,15.17
2018-06-15T21:44:14.393Z,15.18
2018-06-15T21:46:43.284Z,15.20
2018-06-15T21:49:12.182Z,15.23
2018-06-15T21:51:41.094Z,15.23
2018-06-15T21:54:10.006Z,15.22
2018-06-15T21:56:39.183Z,15.17
2018-06-15T21:59:08.230Z,15.16
2018-06-15T22:01:37.250Z,15.14
2018-06-15T22:04:06.175Z,15.10
2018-06-15T22:06:35.081Z,15.07
2018-06-15T22:09:05.613Z,15.09
2018-06-15T22:11:34.509Z,15.12
2018-06-15T22:14:03.339Z,15.13
2018-06-15T22:16:38.413Z,15.19
2018-06-15T22:19:07.355Z,15.27
2018-06-15T22:21:36.449Z,15.29
2018-06-15T22:24:05.394Z,15.36
2018-06-15T22:26:34.245Z,15.37
2018-06-15T22:29:03.165Z,15.42
2018-06-15T22:31:33.466Z,15.46
2018-06-15T22:34:02.329Z,15.46
2018-06-15T22:36:31.216Z,15.50
2018-06-15T22:39:00.109Z,15.55
2018-06-15T22:41:28.974Z,15.61
2018-06-15T22:43:57.917Z,15.64
2018-06-15T22:46:26.755Z,15.66
2018-06-15T22:48:55.603Z,15.61
2018-06-15T22:51:24.537Z,15.63
2018-06-15T22:53:53.428Z,15.65
2018-06-15T22:56:22.395Z,15.61
2018-06-15T22:58:51.325Z,15.64
2018-06-15T23:01:20.201Z,15.57
2018-06-15T23:03:49.109Z,15.60
2018-06-15T23:06:18.081Z,15.57
2018-06-15T23:08:46.949Z,15.50
2018-06-15T23:11:15.918Z,15.47
2018-06-15T23:13:44.801Z,15.45
2018-06-15T23:16:13.701Z,15.42
2018-06-15T23:18:42.587Z,15.41
2018-06-15T23:21:11.442Z,15.42
2018-06-15T23:23:40.496Z,15.43
2018-06-15T23:26:09.490Z,15.43
2018-06-15T23:28:38.407Z,15.46
2018-06-15T23:31:07.399Z,15.47
2018-06-15T23:33:36.297Z,15.49
2018-06-15T23:36:05.186Z,15.49
2018-06-15T23:38:34.072Z,15.50
2018-06-15T23:41:02.950Z,15.47
2018-06-15T23:43:31.901Z,15.44
2018-06-15T23:46:00.777Z,15.40
2018-06-15T23:48:29.617Z,15.40
2018-06-15T23:50:58.464Z,15.36
2018-06-15T23:53:27.315Z,15.42
2018-06-15T23:55:56.303Z,15.36
2018-06-15T23:58:25.148Z,15.36
